sensor_id;sensor_type;location;lat;lon;timestamp;temperature;humidity
3528;DHT22;1778;47.966;7.854;2022-08-19T00:00:27;18.20;99.90
3528;DHT22;1778;47.966;7.854;2022-08-19T00:01:29;18.30;99.90
3528;DHT22;1778;47.966;7.854;2022-08-19T00:02:31;18.30;99.90
3528;DHT22;1778;47.966;7.854;2022-08-19T00:03:33;18.20;99.90
3528;DHT22;1778;47.966;7.854;2022-08-19T00:04:35;18.20;99.90
3528;DHT22;1778;47.966;7.854;2022-08-19T00:05:38;18.20;99.90
3528;DHT22;1778;47.966;7.854;2022-08-19T00:06:41;18.20;99.90
3528;DHT22;1778;47.966;7.854;2022-08-19T00:07:43;18.20;99.90
3528;DHT22;1778;47.966;7.854;2022-08-19T00:08:45;18.20;99.90
3528;DHT22;1778;47.966;7.854;2022-08-19T00:09:46;18.20;99.90
3528;DHT22;1778;47.966;7.854;2022-08-19T00:10:48;18.20;99.90
3528;DHT22;1778;47.966;7.854;2022-08-19T00:11:51;18.20;99.90
3528;DHT22;1778;47.966;7.854;2022-08-19T00:12:53;18.20;99.90
3528;DHT22;1778;47.966;7.854;2022-08-19T00:13:55;18.20;99.90
3528;DHT22;1778;47.966;7.854;2022-08-19T00:14:58;18.20;99.90
3528;DHT22;1778;47.966;7.854;2022-08-19T00:16:00;18.20;99.90
3528;DHT22;1778;47.966;7.854;2022-08-19T00:17:02;18.20;99.90
3528;DHT22;1778;47.966;7.854;2022-08-19T00:18:04;18.20;99.90
3528;DHT22;1778;47.966;7.854;2022-08-19T00:19:06;18.20;99.90
3528;DHT22;1778;47.966;7.854;2022-08-19T00:20:09;18.10;99.90
3528;DHT22;1778;47.966;7.854;2022-08-19T00:21:12;18.20;99.90
3528;DHT22;1778;47.966;7.854;2022-08-19T00:22:13;18.10;99.90
3528;DHT22;1778;47.966;7.854;2022-08-19T00:23:16;18.20;99.90
3528;DHT22;1778;47.966;7.854;2022-08-19T00:24:17;18.10;99.90
3528;DHT22;1778;47.966;7.854;2022-08-19T00:25:20;18.20;99.90
3528;DHT22;1778;47.966;7.854;2022-08-19T00:26:31;18.20;99.90
3528;DHT22;1778;47.966;7.854;2022-08-19T00:27:33;18.20;99.90
3528;DHT22;1778;47.966;7.854;2022-08-19T00:28:35;18.20;99.90
3528;DHT22;1778;47.966;7.854;2022-08-19T00:29:37;18.20;99.90
3528;DHT22;1778;47.966;7.854;2022-08-19T00:30:39;18.20;99.90
3528;DHT22;1778;47.966;7.854;2022-08-19T00:31:42;18.20;99.90
3528;DHT22;1778;47.966;7.854;2022-08-19T00:32:44;18.20;99.90
3528;DHT22;1778;47.966;7.854;2022-08-19T00:33:46;18.20;99.90
3528;DHT22;1778;47.966;7.854;2022-08-19T00:34:49;18.20;99.90
3528;DHT22;1778;47.966;7.854;2022-08-19T00:35:52;18.20;99.90
3528;DHT22;1778;47.966;7.854;2022-08-19T00:36:57;18.20;99.90
3528;DHT22;1778;47.966;7.854;2022-08-19T00:37:59;18.20;99.90
3528;DHT22;1778;47.966;7.854;2022-08-19T00:39:01;18.20;99.90
3528;DHT22;1778;47.966;7.854;2022-08-19T00:40:04;18.20;99.90
3528;DHT22;1778;47.966;7.854;2022-08-19T00:41:07;18.30;99.90
3528;DHT22;1778;47.966;7.854;2022-08-19T00:42:08;18.20;99.90
3528;DHT22;1778;47.966;7.854;2022-08-19T00:43:11;18.20;99.90
3528;DHT22;1778;47.966;7.854;2022-08-19T00:44:22;18.20;99.90
3528;DHT22;1778;47.966;7.854;2022-08-19T00:45:28;18.20;99.90
3528;DHT22;1778;47.966;7.854;2022-08-19T00:46:39;18.20;99.90
3528;DHT22;1778;47.966;7.854;2022-08-19T00:47:41;18.30;99.90
3528;DHT22;1778;47.966;7.854;2022-08-19T00:48:42;18.20;99.90
3528;DHT22;1778;47.966;7.854;2022-08-19T00:49:53;18.20;99.90
3528;DHT22;1778;47.966;7.854;2022-08-19T00:50:56;18.20;99.90
3528;DHT22;1778;47.966;7.854;2022-08-19T00:52:07;18.20;99.90
3528;DHT22;1778;47.966;7.854;2022-08-19T00:53:12;18.10;99.90
3528;DHT22;1778;47.966;7.854;2022-08-19T00:54:16;18.10;99.90
3528;DHT22;1778;47.966;7.854;2022-08-19T00:55:29;18.20;99.90
3528;DHT22;1778;47.966;7.854;2022-08-19T00:56:32;18.10;99.90
3528;DHT22;1778;47.966;7.854;2022-08-19T00:57:38;18.20;99.90
3528;DHT22;1778;47.966;7.854;2022-08-19T00:58:41;18.10;99.90
3528;DHT22;1778;47.966;7.854;2022-08-19T00:59:46;18.20;99.90
3528;DHT22;1778;47.966;7.854;2022-08-19T01:01:03;18.20;99.90
3528;DHT22;1778;47.966;7.854;2022-08-19T01:02:06;18.20;99.90
3528;DHT22;1778;47.966;7.854;2022-08-19T01:03:10;18.20;99.90
3528;DHT22;1778;47.966;7.854;2022-08-19T01:04:12;18.20;99.90
3528;DHT22;1778;47.966;7.854;2022-08-19T01:05:18;18.20;99.90
3528;DHT22;1778;47.966;7.854;2022-08-19T01:06:22;18.20;99.90
3528;DHT22;1778;47.966;7.854;2022-08-19T01:07:23;18.20;99.90
3528;DHT22;1778;47.966;7.854;2022-08-19T01:08:25;18.30;99.90
3528;DHT22;1778;47.966;7.854;2022-08-19T01:09:27;18.20;99.90
3528;DHT22;1778;47.966;7.854;2022-08-19T01:10:31;18.20;99.90
3528;DHT22;1778;47.966;7.854;2022-08-19T01:11:40;18.20;99.90
3528;DHT22;1778;47.966;7.854;2022-08-19T01:12:43;18.20;99.90
3528;DHT22;1778;47.966;7.854;2022-08-19T01:13:45;18.20;99.90
3528;DHT22;1778;47.966;7.854;2022-08-19T01:14:51;18.20;99.90
3528;DHT22;1778;47.966;7.854;2022-08-19T01:16:00;18.20;99.90
3528;DHT22;1778;47.966;7.854;2022-08-19T01:17:03;18.20;99.90
3528;DHT22;1778;47.966;7.854;2022-08-19T01:18:08;18.20;99.90
3528;DHT22;1778;47.966;7.854;2022-08-19T01:19:38;18.20;99.90
3528;DHT22;1778;47.966;7.854;2022-08-19T01:20:45;18.10;99.90
3528;DHT22;1778;47.966;7.854;2022-08-19T01:21:55;18.20;99.90
3528;DHT22;1778;47.966;7.854;2022-08-19T01:22:59;18.10;99.90
3528;DHT22;1778;47.966;7.854;2022-08-19T01:24:00;18.10;99.90
3528;DHT22;1778;47.966;7.854;2022-08-19T01:25:03;18.10;99.90
3528;DHT22;1778;47.966;7.854;2022-08-19T01:26:17;18.10;99.90
3528;DHT22;1778;47.966;7.854;2022-08-19T01:27:20;18.10;99.90
3528;DHT22;1778;47.966;7.854;2022-08-19T01:28:26;18.10;99.90
3528;DHT22;1778;47.966;7.854;2022-08-19T01:29:42;18.10;99.90
3528;DHT22;1778;47.966;7.854;2022-08-19T01:30:45;18.10;99.90
3528;DHT22;1778;47.966;7.854;2022-08-19T01:31:52;18.10;99.90
3528;DHT22;1778;47.966;7.854;2022-08-19T01:32:55;18.10;99.90
3528;DHT22;1778;47.966;7.854;2022-08-19T01:33:57;18.10;99.90
3528;DHT22;1778;47.966;7.854;2022-08-19T01:35:00;18.20;99.90
3528;DHT22;1778;47.966;7.854;2022-08-19T01:36:05;18.20;99.90
3528;DHT22;1778;47.966;7.854;2022-08-19T01:37:09;18.20;99.90
3528;DHT22;1778;47.966;7.854;2022-08-19T01:38:25;18.20;99.90
3528;DHT22;1778;47.966;7.854;2022-08-19T01:39:27;18.20;99.90
3528;DHT22;1778;47.966;7.854;2022-08-19T01:40:31;18.20;99.90
3528;DHT22;1778;47.966;7.854;2022-08-19T01:41:34;18.20;99.90
3528;DHT22;1778;47.966;7.854;2022-08-19T01:42:36;18.20;99.90
3528;DHT22;1778;47.966;7.854;2022-08-19T01:43:38;18.20;99.90
3528;DHT22;1778;47.966;7.854;2022-08-19T01:45:00;18.20;99.90
3528;DHT22;1778;47.966;7.854;2022-08-19T01:46:02;18.20;99.90
3528;DHT22;1778;47.966;7.854;2022-08-19T01:47:04;18.20;99.90
3528;DHT22;1778;47.966;7.854;2022-08-19T01:48:07;18.20;99.90
3528;DHT22;1778;47.966;7.854;2022-08-19T01:49:09;18.30;99.90
3528;DHT22;1778;47.966;7.854;2022-08-19T01:50:12;18.30;99.90
3528;DHT22;1778;47.966;7.854;2022-08-19T01:51:15;18.20;99.90
3528;DHT22;1778;47.966;7.854;2022-08-19T01:52:17;18.20;99.90
3528;DHT22;1778;47.966;7.854;2022-08-19T01:53:19;18.20;99.90
3528;DHT22;1778;47.966;7.854;2022-08-19T01:54:23;18.20;99.90
3528;DHT22;1778;47.966;7.854;2022-08-19T01:55:28;18.20;99.90
3528;DHT22;1778;47.966;7.854;2022-08-19T01:56:30;18.20;99.90
3528;DHT22;1778;47.966;7.854;2022-08-19T01:57:32;18.20;99.90
3528;DHT22;1778;47.966;7.854;2022-08-19T01:58:38;18.20;99.90
3528;DHT22;1778;47.966;7.854;2022-08-19T01:59:42;18.20;99.90
3528;DHT22;1778;47.966;7.854;2022-08-19T02:00:45;18.20;99.90
3528;DHT22;1778;47.966;7.854;2022-08-19T02:01:47;18.20;99.90
3528;DHT22;1778;47.966;7.854;2022-08-19T02:02:48;18.20;99.90
3528;DHT22;1778;47.966;7.854;2022-08-19T02:03:50;18.20;99.90
3528;DHT22;1778;47.966;7.854;2022-08-19T02:04:57;18.20;99.90
3528;DHT22;1778;47.966;7.854;2022-08-19T02:06:02;18.20;99.90
3528;DHT22;1778;47.966;7.854;2022-08-19T02:07:07;18.20;99.90
3528;DHT22;1778;47.966;7.854;2022-08-19T02:08:10;18.20;99.90
3528;DHT22;1778;47.966;7.854;2022-08-19T02:09:11;18.20;99.90
3528;DHT22;1778;47.966;7.854;2022-08-19T02:10:17;18.20;99.90
3528;DHT22;1778;47.966;7.854;2022-08-19T02:11:26;18.20;99.90
3528;DHT22;1778;47.966;7.854;2022-08-19T02:12:28;18.20;99.90
3528;DHT22;1778;47.966;7.854;2022-08-19T02:13:32;18.30;99.90
3528;DHT22;1778;47.966;7.854;2022-08-19T02:14:35;18.20;99.90
3528;DHT22;1778;47.966;7.854;2022-08-19T02:15:37;18.20;99.90
3528;DHT22;1778;47.966;7.854;2022-08-19T02:16:39;18.20;99.90
3528;DHT22;1778;47.966;7.854;2022-08-19T02:17:41;18.20;99.90
3528;DHT22;1778;47.966;7.854;2022-08-19T02:18:42;18.30;99.90
3528;DHT22;1778;47.966;7.854;2022-08-19T02:19:44;18.20;99.90
3528;DHT22;1778;47.966;7.854;2022-08-19T02:20:46;18.30;99.90
3528;DHT22;1778;47.966;7.854;2022-08-19T02:21:50;18.30;99.90
3528;DHT22;1778;47.966;7.854;2022-08-19T02:22:52;18.30;99.90
3528;DHT22;1778;47.966;7.854;2022-08-19T02:23:55;18.30;99.90
3528;DHT22;1778;47.966;7.854;2022-08-19T02:24:57;18.30;99.90
3528;DHT22;1778;47.966;7.854;2022-08-19T02:25:59;18.30;99.90
3528;DHT22;1778;47.966;7.854;2022-08-19T02:27:01;18.30;99.90
3528;DHT22;1778;47.966;7.854;2022-08-19T02:28:03;18.30;99.90
3528;DHT22;1778;47.966;7.854;2022-08-19T02:29:04;18.20;99.90
3528;DHT22;1778;47.966;7.854;2022-08-19T02:30:09;18.30;99.90
3528;DHT22;1778;47.966;7.854;2022-08-19T02:31:19;18.30;99.90
3528;DHT22;1778;47.966;7.854;2022-08-19T02:32:22;18.30;99.90
3528;DHT22;1778;47.966;7.854;2022-08-19T02:33:23;18.30;99.90
3528;DHT22;1778;47.966;7.854;2022-08-19T02:34:25;18.30;99.90
3528;DHT22;1778;47.966;7.854;2022-08-19T02:35:26;18.30;99.90
3528;DHT22;1778;47.966;7.854;2022-08-19T02:36:28;18.30;99.90
3528;DHT22;1778;47.966;7.854;2022-08-19T02:37:30;18.30;99.90
3528;DHT22;1778;47.966;7.854;2022-08-19T02:38:51;18.30;99.90
3528;DHT22;1778;47.966;7.854;2022-08-19T02:39:55;18.30;99.90
3528;DHT22;1778;47.966;7.854;2022-08-19T02:41:03;18.30;99.90
3528;DHT22;1778;47.966;7.854;2022-08-19T02:42:05;18.30;99.90
3528;DHT22;1778;47.966;7.854;2022-08-19T02:43:08;18.30;99.90
3528;DHT22;1778;47.966;7.854;2022-08-19T02:44:10;18.30;99.90
3528;DHT22;1778;47.966;7.854;2022-08-19T02:45:35;18.30;99.90
3528;DHT22;1778;47.966;7.854;2022-08-19T02:46:42;18.20;99.90
3528;DHT22;1778;47.966;7.854;2022-08-19T02:47:46;18.20;99.90
3528;DHT22;1778;47.966;7.854;2022-08-19T02:48:52;18.30;99.90
3528;DHT22;1778;47.966;7.854;2022-08-19T02:49:54;18.20;99.90
3528;DHT22;1778;47.966;7.854;2022-08-19T02:50:56;18.20;99.90
3528;DHT22;1778;47.966;7.854;2022-08-19T02:51:57;18.20;99.90
3528;DHT22;1778;47.966;7.854;2022-08-19T02:52:59;18.20;99.90
3528;DHT22;1778;47.966;7.854;2022-08-19T02:54:02;18.20;99.90
3528;DHT22;1778;47.966;7.854;2022-08-19T02:55:04;18.20;99.90
3528;DHT22;1778;47.966;7.854;2022-08-19T02:56:07;18.20;99.90
3528;DHT22;1778;47.966;7.854;2022-08-19T02:57:09;18.10;99.90
3528;DHT22;1778;47.966;7.854;2022-08-19T02:58:12;18.10;99.90
3528;DHT22;1778;47.966;7.854;2022-08-19T02:59:14;18.10;99.90
3528;DHT22;1778;47.966;7.854;2022-08-19T03:00:16;18.10;99.90
3528;DHT22;1778;47.966;7.854;2022-08-19T03:01:27;18.10;99.90
3528;DHT22;1778;47.966;7.854;2022-08-19T03:02:29;18.10;99.90
3528;DHT22;1778;47.966;7.854;2022-08-19T03:03:31;18.10;99.90
3528;DHT22;1778;47.966;7.854;2022-08-19T03:04:34;18.20;99.90
3528;DHT22;1778;47.966;7.854;2022-08-19T03:05:36;18.20;99.90
3528;DHT22;1778;47.966;7.854;2022-08-19T03:06:57;18.10;99.90
3528;DHT22;1778;47.966;7.854;2022-08-19T03:08:12;18.20;99.90
3528;DHT22;1778;47.966;7.854;2022-08-19T03:09:15;18.20;99.90
3528;DHT22;1778;47.966;7.854;2022-08-19T03:10:17;18.20;99.90
3528;DHT22;1778;47.966;7.854;2022-08-19T03:11:26;18.20;99.90
3528;DHT22;1778;47.966;7.854;2022-08-19T03:12:29;18.10;99.90
3528;DHT22;1778;47.966;7.854;2022-08-19T03:13:30;18.10;99.90
3528;DHT22;1778;47.966;7.854;2022-08-19T03:14:33;18.10;99.90
3528;DHT22;1778;47.966;7.854;2022-08-19T03:15:39;18.10;99.90
3528;DHT22;1778;47.966;7.854;2022-08-19T03:16:44;18.10;99.90
3528;DHT22;1778;47.966;7.854;2022-08-19T03:17:46;18.10;99.90
3528;DHT22;1778;47.966;7.854;2022-08-19T03:18:48;18.10;99.90
3528;DHT22;1778;47.966;7.854;2022-08-19T03:19:50;18.10;99.90
3528;DHT22;1778;47.966;7.854;2022-08-19T03:20:53;18.10;99.90
3528;DHT22;1778;47.966;7.854;2022-08-19T03:21:55;18.10;99.90
3528;DHT22;1778;47.966;7.854;2022-08-19T03:22:57;18.10;99.90
3528;DHT22;1778;47.966;7.854;2022-08-19T03:24:02;18.10;99.90
3528;DHT22;1778;47.966;7.854;2022-08-19T03:25:04;18.10;99.90
3528;DHT22;1778;47.966;7.854;2022-08-19T03:26:06;18.10;99.90
3528;DHT22;1778;47.966;7.854;2022-08-19T03:27:17;18.20;99.90
3528;DHT22;1778;47.966;7.854;2022-08-19T03:28:20;18.20;99.90
3528;DHT22;1778;47.966;7.854;2022-08-19T03:29:22;18.20;99.90
3528;DHT22;1778;47.966;7.854;2022-08-19T03:30:31;18.20;99.90
3528;DHT22;1778;47.966;7.854;2022-08-19T03:31:34;18.20;99.90
3528;DHT22;1778;47.966;7.854;2022-08-19T03:32:52;18.20;99.90
3528;DHT22;1778;47.966;7.854;2022-08-19T03:33:57;18.20;99.90
3528;DHT22;1778;47.966;7.854;2022-08-19T03:34:59;18.10;99.90
3528;DHT22;1778;47.966;7.854;2022-08-19T03:36:03;18.20;99.90
3528;DHT22;1778;47.966;7.854;2022-08-19T03:37:08;18.20;99.90
3528;DHT22;1778;47.966;7.854;2022-08-19T03:38:10;18.20;99.90
3528;DHT22;1778;47.966;7.854;2022-08-19T03:39:12;18.20;99.90
3528;DHT22;1778;47.966;7.854;2022-08-19T03:40:13;18.20;99.90
3528;DHT22;1778;47.966;7.854;2022-08-19T03:41:23;18.20;99.90
3528;DHT22;1778;47.966;7.854;2022-08-19T03:42:34;18.20;99.90
3528;DHT22;1778;47.966;7.854;2022-08-19T03:43:50;18.20;99.90
3528;DHT22;1778;47.966;7.854;2022-08-19T03:44:52;18.20;99.90
3528;DHT22;1778;47.966;7.854;2022-08-19T03:46:10;18.20;99.90
3528;DHT22;1778;47.966;7.854;2022-08-19T03:47:12;18.20;99.90
3528;DHT22;1778;47.966;7.854;2022-08-19T03:48:17;18.30;99.90
3528;DHT22;1778;47.966;7.854;2022-08-19T03:49:20;18.20;99.90
3528;DHT22;1778;47.966;7.854;2022-08-19T03:50:28;18.20;99.90
3528;DHT22;1778;47.966;7.854;2022-08-19T03:51:33;18.20;99.90
3528;DHT22;1778;47.966;7.854;2022-08-19T03:52:35;18.20;99.90
3528;DHT22;1778;47.966;7.854;2022-08-19T03:53:37;18.20;99.90
3528;DHT22;1778;47.966;7.854;2022-08-19T03:54:39;18.20;99.90
3528;DHT22;1778;47.966;7.854;2022-08-19T03:55:41;18.20;99.90
3528;DHT22;1778;47.966;7.854;2022-08-19T03:56:44;18.20;99.90
3528;DHT22;1778;47.966;7.854;2022-08-19T03:57:45;18.20;99.90
3528;DHT22;1778;47.966;7.854;2022-08-19T03:58:49;18.20;99.90
3528;DHT22;1778;47.966;7.854;2022-08-19T03:59:51;18.20;99.90
3528;DHT22;1778;47.966;7.854;2022-08-19T04:00:53;18.20;99.90
3528;DHT22;1778;47.966;7.854;2022-08-19T04:01:59;18.20;99.90
3528;DHT22;1778;47.966;7.854;2022-08-19T04:03:01;18.20;99.90
3528;DHT22;1778;47.966;7.854;2022-08-19T04:04:03;18.20;99.90
3528;DHT22;1778;47.966;7.854;2022-08-19T04:05:06;18.20;99.90
3528;DHT22;1778;47.966;7.854;2022-08-19T04:06:20;18.20;99.90
3528;DHT22;1778;47.966;7.854;2022-08-19T04:07:22;18.20;99.90
3528;DHT22;1778;47.966;7.854;2022-08-19T04:08:24;18.20;99.90
3528;DHT22;1778;47.966;7.854;2022-08-19T04:09:26;18.20;99.90
3528;DHT22;1778;47.966;7.854;2022-08-19T04:10:29;18.20;99.90
3528;DHT22;1778;47.966;7.854;2022-08-19T04:11:34;18.20;99.90
3528;DHT22;1778;47.966;7.854;2022-08-19T04:12:44;18.20;99.90
3528;DHT22;1778;47.966;7.854;2022-08-19T04:13:50;18.20;99.90
3528;DHT22;1778;47.966;7.854;2022-08-19T04:14:52;18.20;99.90
3528;DHT22;1778;47.966;7.854;2022-08-19T04:15:54;18.20;99.90
3528;DHT22;1778;47.966;7.854;2022-08-19T04:16:56;18.20;99.90
3528;DHT22;1778;47.966;7.854;2022-08-19T04:17:58;18.20;99.90
3528;DHT22;1778;47.966;7.854;2022-08-19T04:19:01;18.10;99.90
3528;DHT22;1778;47.966;7.854;2022-08-19T04:20:03;18.20;99.90
3528;DHT22;1778;47.966;7.854;2022-08-19T04:21:07;18.10;99.90
3528;DHT22;1778;47.966;7.854;2022-08-19T04:22:09;18.20;99.90
3528;DHT22;1778;47.966;7.854;2022-08-19T04:23:13;18.20;99.90
3528;DHT22;1778;47.966;7.854;2022-08-19T04:24:15;18.20;99.90
3528;DHT22;1778;47.966;7.854;2022-08-19T04:25:17;18.20;99.90
3528;DHT22;1778;47.966;7.854;2022-08-19T04:26:22;18.20;99.90
3528;DHT22;1778;47.966;7.854;2022-08-19T04:27:24;18.20;99.90
3528;DHT22;1778;47.966;7.854;2022-08-19T04:28:26;18.20;99.90
3528;DHT22;1778;47.966;7.854;2022-08-19T04:29:28;18.30;99.90
3528;DHT22;1778;47.966;7.854;2022-08-19T04:30:31;18.40;99.90
3528;DHT22;1778;47.966;7.854;2022-08-19T04:31:39;18.40;99.90
3528;DHT22;1778;47.966;7.854;2022-08-19T04:32:42;18.30;99.90
3528;DHT22;1778;47.966;7.854;2022-08-19T04:33:45;18.30;99.90
3528;DHT22;1778;47.966;7.854;2022-08-19T04:34:46;18.30;99.90
3528;DHT22;1778;47.966;7.854;2022-08-19T04:36:19;18.30;99.90
3528;DHT22;1778;47.966;7.854;2022-08-19T04:37:21;18.30;99.90
3528;DHT22;1778;47.966;7.854;2022-08-19T04:38:24;18.30;99.90
3528;DHT22;1778;47.966;7.854;2022-08-19T04:39:30;18.40;99.90
3528;DHT22;1778;47.966;7.854;2022-08-19T04:40:51;18.40;99.90
3528;DHT22;1778;47.966;7.854;2022-08-19T04:42:11;18.40;99.90
3528;DHT22;1778;47.966;7.854;2022-08-19T04:43:33;18.30;99.90
3528;DHT22;1778;47.966;7.854;2022-08-19T04:44:36;18.30;99.90
3528;DHT22;1778;47.966;7.854;2022-08-19T04:45:46;18.30;99.90
3528;DHT22;1778;47.966;7.854;2022-08-19T04:46:49;18.30;99.90
3528;DHT22;1778;47.966;7.854;2022-08-19T04:47:55;18.30;99.90
3528;DHT22;1778;47.966;7.854;2022-08-19T04:49:20;18.30;99.90
3528;DHT22;1778;47.966;7.854;2022-08-19T04:50:25;18.40;99.90
3528;DHT22;1778;47.966;7.854;2022-08-19T04:51:27;18.40;99.90
3528;DHT22;1778;47.966;7.854;2022-08-19T04:52:28;18.40;99.90
3528;DHT22;1778;47.966;7.854;2022-08-19T04:53:35;18.40;99.90
3528;DHT22;1778;47.966;7.854;2022-08-19T04:54:38;18.40;99.90
3528;DHT22;1778;47.966;7.854;2022-08-19T04:55:41;18.40;99.90
3528;DHT22;1778;47.966;7.854;2022-08-19T04:56:43;18.50;99.90
3528;DHT22;1778;47.966;7.854;2022-08-19T04:57:45;18.50;99.90
3528;DHT22;1778;47.966;7.854;2022-08-19T04:58:49;18.50;99.90
3528;DHT22;1778;47.966;7.854;2022-08-19T04:59:56;18.50;99.90
3528;DHT22;1778;47.966;7.854;2022-08-19T05:00:58;18.50;99.90
3528;DHT22;1778;47.966;7.854;2022-08-19T05:02:01;18.50;99.90
3528;DHT22;1778;47.966;7.854;2022-08-19T05:03:04;18.50;99.90
3528;DHT22;1778;47.966;7.854;2022-08-19T05:04:08;18.50;99.90
3528;DHT22;1778;47.966;7.854;2022-08-19T05:05:10;18.50;99.90
3528;DHT22;1778;47.966;7.854;2022-08-19T05:06:13;18.50;99.90
3528;DHT22;1778;47.966;7.854;2022-08-19T05:07:16;18.50;99.90
3528;DHT22;1778;47.966;7.854;2022-08-19T05:08:20;18.50;99.90
3528;DHT22;1778;47.966;7.854;2022-08-19T05:09:32;18.50;99.90
3528;DHT22;1778;47.966;7.854;2022-08-19T05:10:54;18.60;99.90
3528;DHT22;1778;47.966;7.854;2022-08-19T05:11:55;18.50;99.90
3528;DHT22;1778;47.966;7.854;2022-08-19T05:12:57;18.60;99.90
3528;DHT22;1778;47.966;7.854;2022-08-19T05:14:00;18.60;99.90
3528;DHT22;1778;47.966;7.854;2022-08-19T05:15:05;18.50;99.90
3528;DHT22;1778;47.966;7.854;2022-08-19T05:16:10;18.50;99.90
3528;DHT22;1778;47.966;7.854;2022-08-19T05:17:12;18.50;99.90
3528;DHT22;1778;47.966;7.854;2022-08-19T05:18:34;18.60;99.90
3528;DHT22;1778;47.966;7.854;2022-08-19T05:19:54;18.60;99.90
3528;DHT22;1778;47.966;7.854;2022-08-19T05:21:17;18.60;99.90
3528;DHT22;1778;47.966;7.854;2022-08-19T05:22:38;18.60;99.90
3528;DHT22;1778;47.966;7.854;2022-08-19T05:23:39;18.60;99.90
3528;DHT22;1778;47.966;7.854;2022-08-19T05:24:42;18.60;99.90
3528;DHT22;1778;47.966;7.854;2022-08-19T05:26:04;18.60;99.90
3528;DHT22;1778;47.966;7.854;2022-08-19T05:27:06;18.60;99.90
3528;DHT22;1778;47.966;7.854;2022-08-19T05:28:07;18.60;99.90
3528;DHT22;1778;47.966;7.854;2022-08-19T05:29:09;18.60;99.90
3528;DHT22;1778;47.966;7.854;2022-08-19T05:30:12;18.60;99.90
3528;DHT22;1778;47.966;7.854;2022-08-19T05:31:14;18.60;99.90
3528;DHT22;1778;47.966;7.854;2022-08-19T05:32:16;18.60;99.90
3528;DHT22;1778;47.966;7.854;2022-08-19T05:33:18;18.80;99.90
3528;DHT22;1778;47.966;7.854;2022-08-19T05:34:21;18.70;99.90
3528;DHT22;1778;47.966;7.854;2022-08-19T05:35:23;18.70;99.90
3528;DHT22;1778;47.966;7.854;2022-08-19T05:36:27;18.70;99.90
3528;DHT22;1778;47.966;7.854;2022-08-19T05:37:29;18.70;99.90
3528;DHT22;1778;47.966;7.854;2022-08-19T05:38:30;18.70;99.90
3528;DHT22;1778;47.966;7.854;2022-08-19T05:39:34;18.70;99.90
3528;DHT22;1778;47.966;7.854;2022-08-19T05:40:37;18.70;99.90
3528;DHT22;1778;47.966;7.854;2022-08-19T05:41:43;18.80;99.90
3528;DHT22;1778;47.966;7.854;2022-08-19T05:42:45;18.90;99.90
3528;DHT22;1778;47.966;7.854;2022-08-19T05:43:56;18.90;99.90
3528;DHT22;1778;47.966;7.854;2022-08-19T05:44:59;18.90;99.90
3528;DHT22;1778;47.966;7.854;2022-08-19T05:46:00;18.90;99.90
3528;DHT22;1778;47.966;7.854;2022-08-19T05:47:04;18.90;99.90
3528;DHT22;1778;47.966;7.854;2022-08-19T05:48:07;18.80;99.90
3528;DHT22;1778;47.966;7.854;2022-08-19T05:49:09;18.90;99.90
3528;DHT22;1778;47.966;7.854;2022-08-19T05:50:11;19.10;99.90
3528;DHT22;1778;47.966;7.854;2022-08-19T05:51:12;19.00;99.90
3528;DHT22;1778;47.966;7.854;2022-08-19T05:52:18;19.00;99.90
3528;DHT22;1778;47.966;7.854;2022-08-19T05:53:26;19.00;99.90
3528;DHT22;1778;47.966;7.854;2022-08-19T05:54:27;19.00;99.90
3528;DHT22;1778;47.966;7.854;2022-08-19T05:55:29;19.00;99.90
3528;DHT22;1778;47.966;7.854;2022-08-19T05:56:30;19.00;99.90
3528;DHT22;1778;47.966;7.854;2022-08-19T05:57:32;19.00;99.90
3528;DHT22;1778;47.966;7.854;2022-08-19T05:58:35;19.00;99.90
3528;DHT22;1778;47.966;7.854;2022-08-19T05:59:37;19.00;99.90
3528;DHT22;1778;47.966;7.854;2022-08-19T06:00:39;19.10;99.90
3528;DHT22;1778;47.966;7.854;2022-08-19T06:01:44;19.10;99.90
3528;DHT22;1778;47.966;7.854;2022-08-19T06:02:46;19.10;99.90
3528;DHT22;1778;47.966;7.854;2022-08-19T06:03:48;19.00;99.90
3528;DHT22;1778;47.966;7.854;2022-08-19T06:04:50;19.00;99.90
3528;DHT22;1778;47.966;7.854;2022-08-19T06:05:51;19.00;99.90
3528;DHT22;1778;47.966;7.854;2022-08-19T06:06:56;19.00;99.90
3528;DHT22;1778;47.966;7.854;2022-08-19T06:07:58;19.00;99.90
3528;DHT22;1778;47.966;7.854;2022-08-19T06:09:07;19.10;99.90
3528;DHT22;1778;47.966;7.854;2022-08-19T06:10:10;19.10;99.90
3528;DHT22;1778;47.966;7.854;2022-08-19T06:11:18;19.10;99.90
3528;DHT22;1778;47.966;7.854;2022-08-19T06:12:21;19.20;99.90
3528;DHT22;1778;47.966;7.854;2022-08-19T06:13:26;19.20;99.90
3528;DHT22;1778;47.966;7.854;2022-08-19T06:14:34;19.20;99.90
3528;DHT22;1778;47.966;7.854;2022-08-19T06:15:42;19.20;99.90
3528;DHT22;1778;47.966;7.854;2022-08-19T06:16:45;19.30;99.90
3528;DHT22;1778;47.966;7.854;2022-08-19T06:17:47;19.30;99.90
3528;DHT22;1778;47.966;7.854;2022-08-19T06:18:53;19.40;99.90
3528;DHT22;1778;47.966;7.854;2022-08-19T06:19:55;19.40;99.90
3528;DHT22;1778;47.966;7.854;2022-08-19T06:20:57;19.40;99.90
3528;DHT22;1778;47.966;7.854;2022-08-19T06:21:59;19.50;99.90
3528;DHT22;1778;47.966;7.854;2022-08-19T06:23:02;19.50;99.90
3528;DHT22;1778;47.966;7.854;2022-08-19T06:24:06;19.50;99.90
3528;DHT22;1778;47.966;7.854;2022-08-19T06:25:10;19.50;99.90
3528;DHT22;1778;47.966;7.854;2022-08-19T06:26:13;19.50;99.90
3528;DHT22;1778;47.966;7.854;2022-08-19T06:27:15;19.50;99.90
3528;DHT22;1778;47.966;7.854;2022-08-19T06:28:17;19.60;99.90
3528;DHT22;1778;47.966;7.854;2022-08-19T06:29:23;19.60;99.90
3528;DHT22;1778;47.966;7.854;2022-08-19T06:30:25;19.70;99.90
3528;DHT22;1778;47.966;7.854;2022-08-19T06:31:28;19.70;99.90
3528;DHT22;1778;47.966;7.854;2022-08-19T06:32:30;19.70;99.90
3528;DHT22;1778;47.966;7.854;2022-08-19T06:33:32;19.70;99.90
3528;DHT22;1778;47.966;7.854;2022-08-19T06:34:35;19.70;99.90
3528;DHT22;1778;47.966;7.854;2022-08-19T06:35:40;19.80;99.90
3528;DHT22;1778;47.966;7.854;2022-08-19T06:36:45;19.80;99.90
3528;DHT22;1778;47.966;7.854;2022-08-19T06:37:47;19.80;99.90
3528;DHT22;1778;47.966;7.854;2022-08-19T06:38:49;19.80;99.90
3528;DHT22;1778;47.966;7.854;2022-08-19T06:39:51;19.90;99.90
3528;DHT22;1778;47.966;7.854;2022-08-19T06:41:01;20.00;99.90
3528;DHT22;1778;47.966;7.854;2022-08-19T06:42:08;20.00;99.90
3528;DHT22;1778;47.966;7.854;2022-08-19T06:43:13;20.10;99.90
3528;DHT22;1778;47.966;7.854;2022-08-19T06:44:20;20.10;99.90
3528;DHT22;1778;47.966;7.854;2022-08-19T06:45:26;20.10;99.90
3528;DHT22;1778;47.966;7.854;2022-08-19T06:46:37;20.20;99.90
3528;DHT22;1778;47.966;7.854;2022-08-19T06:47:40;20.20;99.90
3528;DHT22;1778;47.966;7.854;2022-08-19T06:48:46;20.20;99.90
3528;DHT22;1778;47.966;7.854;2022-08-19T06:49:48;20.20;99.90
3528;DHT22;1778;47.966;7.854;2022-08-19T06:50:49;20.20;99.90
3528;DHT22;1778;47.966;7.854;2022-08-19T06:51:52;20.30;99.90
3528;DHT22;1778;47.966;7.854;2022-08-19T06:52:54;20.30;99.90
3528;DHT22;1778;47.966;7.854;2022-08-19T06:53:56;20.30;99.90
3528;DHT22;1778;47.966;7.854;2022-08-19T06:54:58;20.40;99.90
3528;DHT22;1778;47.966;7.854;2022-08-19T06:56:01;20.50;99.90
3528;DHT22;1778;47.966;7.854;2022-08-19T06:57:03;20.50;99.90
3528;DHT22;1778;47.966;7.854;2022-08-19T06:58:05;20.50;99.90
3528;DHT22;1778;47.966;7.854;2022-08-19T06:59:12;20.60;99.90
3528;DHT22;1778;47.966;7.854;2022-08-19T07:00:14;20.60;99.90
3528;DHT22;1778;47.966;7.854;2022-08-19T07:01:16;20.60;99.90